createdAt,value
2018-01-28T00:00:48.735Z,6.40
2018-01-28T00:03:16.342Z,6.30
2018-01-28T00:05:44.732Z,6.40
2018-01-28T00:08:13.406Z,6.40
2018-01-28T00:10:41.046Z,6.40
2018-01-28T00:13:22.899Z,6.40
2018-01-28T00:15:50.624Z,6.40
2018-01-28T00:18:18.205Z,6.40
2018-01-28T00:20:46.580Z,6.50
2018-01-28T00:23:14.603Z,6.40
2018-01-28T00:25:42.284Z,6.50
2018-01-28T00:28:09.922Z,6.40
2018-01-28T00:30:37.512Z,6.50
2018-01-28T00:33:07.292Z,6.40
2018-01-28T00:35:36.228Z,6.40
2018-01-28T00:38:04.006Z,6.50
2018-01-28T00:40:31.622Z,6.50
2018-01-28T00:42:59.284Z,6.50
2018-01-28T00:45:26.858Z,6.50
2018-01-28T00:47:54.437Z,6.50
2018-01-28T00:50:22.099Z,6.50
2018-01-28T00:52:49.749Z,6.50
2018-01-28T00:55:17.359Z,6.50
2018-01-28T00:57:44.977Z,6.50
2018-01-28T01:00:14.507Z,6.50
2018-01-28T01:02:45.359Z,6.60
2018-01-28T01:05:14.529Z,6.60
2018-01-28T01:07:42.378Z,6.60
2018-01-28T01:10:11.806Z,6.60
2018-01-28T01:12:39.456Z,6.60
2018-01-28T01:15:07.882Z,6.60
2018-01-28T01:17:35.498Z,6.60
2018-01-28T01:20:03.108Z,6.60
2018-01-28T01:22:33.582Z,6.60
2018-01-28T01:25:02.467Z,6.60
2018-01-28T01:27:30.064Z,6.70
2018-01-28T01:29:58.372Z,6.70
2018-01-28T01:32:25.997Z,6.70
2018-01-28T01:34:53.763Z,6.70
2018-01-28T01:37:21.357Z,6.80
2018-01-28T01:39:48.970Z,6.80
2018-01-28T01:42:16.531Z,6.80
2018-01-28T01:44:44.251Z,6.80
2018-01-28T01:47:12.000Z,6.80
2018-01-28T01:49:40.671Z,6.80
2018-01-28T01:52:08.525Z,6.80
2018-01-28T01:54:37.120Z,6.90
2018-01-28T01:57:04.708Z,6.90
2018-01-28T01:59:32.276Z,6.90
2018-01-28T02:01:59.886Z,6.90
2018-01-28T02:04:27.469Z,7.00
2018-01-28T02:06:55.054Z,7.00
2018-01-28T02:09:23.850Z,7.00
2018-01-28T02:11:51.430Z,7.00
2018-01-28T02:14:19.094Z,7.00
2018-01-28T02:16:47.985Z,7.10
2018-01-28T02:19:16.351Z,7.10
2018-01-28T02:21:43.943Z,7.10
2018-01-28T02:24:12.352Z,7.10
2018-01-28T02:26:39.949Z,7.10
2018-01-28T02:29:07.558Z,7.10
2018-01-28T02:31:35.167Z,7.20
2018-01-28T02:34:02.777Z,7.20
2018-01-28T02:36:30.446Z,7.20
2018-01-28T02:38:58.098Z,7.20
2018-01-28T02:41:26.518Z,7.20
2018-01-28T02:43:57.622Z,7.20
2018-01-28T02:46:25.238Z,7.30
2018-01-28T02:48:53.382Z,7.30
2018-01-28T02:51:21.104Z,7.30
2018-01-28T02:53:48.664Z,7.30
2018-01-28T02:56:17.051Z,7.30
2018-01-28T02:58:44.836Z,7.30
2018-01-28T03:01:12.536Z,7.30
2018-01-28T03:03:40.117Z,7.40
2018-01-28T03:06:07.715Z,7.40
2018-01-28T03:08:35.341Z,7.30
2018-01-28T03:11:03.553Z,7.30
2018-01-28T03:13:46.248Z,7.40
2018-01-28T03:16:13.992Z,7.30
2018-01-28T03:18:41.883Z,7.40
2018-01-28T03:21:10.340Z,7.40
2018-01-28T03:23:51.601Z,7.40
2018-01-28T03:26:19.260Z,7.50
2018-01-28T03:28:46.910Z,7.40
2018-01-28T03:31:15.328Z,7.50
2018-01-28T03:34:02.428Z,7.50
2018-01-28T03:36:30.084Z,7.50
2018-01-28T03:38:57.780Z,7.50
2018-01-28T03:41:26.375Z,7.50
2018-01-28T03:43:54.998Z,7.50
2018-01-28T03:46:22.643Z,7.60
2018-01-28T03:48:51.697Z,7.60
2018-01-28T03:51:19.463Z,7.60
2018-01-28T03:53:48.073Z,7.60
2018-01-28T03:56:15.677Z,7.60
2018-01-28T03:58:43.383Z,7.60
2018-01-28T04:01:10.947Z,7.60
2018-01-28T04:03:42.443Z,7.60
2018-01-28T04:06:10.178Z,7.60
2018-01-28T04:08:37.812Z,7.60
2018-01-28T04:11:05.485Z,7.70
2018-01-28T04:13:43.243Z,7.70
2018-01-28T04:16:11.662Z,7.70
2018-01-28T04:18:39.276Z,7.70
2018-01-28T04:21:06.903Z,7.70
2018-01-28T04:23:41.504Z,7.80
2018-01-28T04:26:09.907Z,7.80
2018-01-28T04:28:37.583Z,7.80
2018-01-28T04:31:05.171Z,7.80
2018-01-28T04:33:34.631Z,7.90
2018-01-28T04:36:02.213Z,7.80
2018-01-28T04:38:29.817Z,7.80
2018-01-28T04:40:57.395Z,7.80
2018-01-28T04:43:25.685Z,7.90
2018-01-28T04:45:53.353Z,7.80
2018-01-28T04:48:21.015Z,7.80
2018-01-28T04:50:48.646Z,7.90
2018-01-28T04:53:23.841Z,7.90
2018-01-28T04:55:52.352Z,7.90
2018-01-28T04:58:20.482Z,7.90
2018-01-28T05:00:48.140Z,7.90
2018-01-28T05:03:18.651Z,7.90
2018-01-28T05:05:47.062Z,7.90
2018-01-28T05:08:14.748Z,7.90
2018-01-28T05:10:42.338Z,7.90
2018-01-28T05:13:09.937Z,8.00
2018-01-28T05:15:38.381Z,8.00
2018-01-28T05:18:06.063Z,8.00
2018-01-28T05:20:33.677Z,8.00
2018-01-28T05:23:01.374Z,8.10
2018-01-28T05:25:28.983Z,8.10
2018-01-28T05:27:56.617Z,8.00
2018-01-28T05:30:25.922Z,8.10
2018-01-28T05:32:54.495Z,8.00
2018-01-28T05:35:22.086Z,8.10
2018-01-28T05:37:49.745Z,8.10
2018-01-28T05:40:18.208Z,8.20
2018-01-28T05:42:46.914Z,8.20
2018-01-28T05:45:14.696Z,8.20
2018-01-28T05:47:42.372Z,8.30
2018-01-28T05:50:09.949Z,8.30
2018-01-28T05:52:38.462Z,8.20
2018-01-28T05:55:06.214Z,8.20
2018-01-28T05:57:33.800Z,8.30
2018-01-28T06:00:01.393Z,8.30
2018-01-28T06:02:29.067Z,8.30
2018-01-28T06:04:56.815Z,8.30
2018-01-28T06:07:24.481Z,8.40
2018-01-28T06:09:52.073Z,8.40
2018-01-28T06:12:20.472Z,8.40
2018-01-28T06:14:48.118Z,8.40
2018-01-28T06:17:15.722Z,8.40
2018-01-28T06:19:43.308Z,8.50
2018-01-28T06:22:11.696Z,8.50
2018-01-28T06:24:49.572Z,8.40
2018-01-28T06:27:17.311Z,8.50
2018-01-28T06:29:45.033Z,8.50
2018-01-28T06:32:12.742Z,8.50
2018-01-28T06:34:45.250Z,8.50
2018-01-28T06:37:12.830Z,8.60
2018-01-28T06:39:41.394Z,8.60
2018-01-28T06:42:09.131Z,8.60
2018-01-28T06:44:36.733Z,8.60
2018-01-28T06:47:05.007Z,8.60
2018-01-28T06:49:33.423Z,8.60
2018-01-28T06:52:01.015Z,8.60
2018-01-28T06:54:34.419Z,8.60
2018-01-28T06:57:02.651Z,8.60
2018-01-28T06:59:30.306Z,8.60
2018-01-28T07:01:59.059Z,8.70
2018-01-28T07:04:31.136Z,8.70
2018-01-28T07:06:58.761Z,8.70
2018-01-28T07:09:26.348Z,8.70
2018-01-28T07:11:53.992Z,8.70
2018-01-28T07:14:21.582Z,8.70
2018-01-28T07:16:50.048Z,8.80
2018-01-28T07:19:17.664Z,8.80
2018-01-28T07:21:46.276Z,8.80
2018-01-28T07:24:13.937Z,8.80
2018-01-28T07:26:41.560Z,8.90
2018-01-28T07:29:09.185Z,8.90
2018-01-28T07:31:36.772Z,8.90
2018-01-28T07:34:04.395Z,8.90
2018-01-28T07:36:32.153Z,8.90
2018-01-28T07:38:59.788Z,8.90
2018-01-28T07:41:27.427Z,8.90
2018-01-28T07:43:55.008Z,8.90
2018-01-28T07:46:22.621Z,8.90
2018-01-28T07:48:50.230Z,9.00
2018-01-28T07:51:17.859Z,9.00
2018-01-28T07:53:45.468Z,9.00
2018-01-28T07:56:13.108Z,9.10
2018-01-28T07:58:40.722Z,9.10
2018-01-28T08:01:08.314Z,9.10
2018-01-28T08:03:36.712Z,9.20
2018-01-28T08:06:04.936Z,9.20
2018-01-28T08:08:37.001Z,9.20
2018-01-28T08:11:10.162Z,9.20
2018-01-28T08:13:46.888Z,9.20
2018-01-28T08:16:14.454Z,9.30
2018-01-28T08:18:42.935Z,9.30
2018-01-28T08:21:10.638Z,9.30
2018-01-28T08:23:39.262Z,9.30
2018-01-28T08:26:06.877Z,9.30
2018-01-28T08:28:39.212Z,9.40
2018-01-28T08:31:06.902Z,9.40
2018-01-28T08:33:35.588Z,9.40
2018-01-28T08:36:05.896Z,9.50
2018-01-28T08:38:33.747Z,9.40
2018-01-28T08:41:02.127Z,9.50
2018-01-28T08:43:29.842Z,9.50
2018-01-28T08:45:57.587Z,9.50
2018-01-28T08:48:25.317Z,9.50
2018-01-28T08:50:53.740Z,9.50
2018-01-28T08:53:22.436Z,9.50
2018-01-28T08:55:50.081Z,9.50
2018-01-28T08:58:17.953Z,9.50
2018-01-28T09:00:45.671Z,9.60
2018-01-28T09:03:16.707Z,9.60
2018-01-28T09:05:44.370Z,9.60
2018-01-28T09:08:12.077Z,9.60
2018-01-28T09:10:39.734Z,9.60
2018-01-28T09:13:07.447Z,9.70
2018-01-28T09:15:35.022Z,9.70
2018-01-28T09:18:02.619Z,9.80
2018-01-28T09:20:30.972Z,9.80
2018-01-28T09:23:09.150Z,9.80
2018-01-28T09:25:36.829Z,9.90
2018-01-28T09:28:04.557Z,9.90
2018-01-28T09:30:32.152Z,9.90
2018-01-28T09:33:01.715Z,10.00
2018-01-28T09:35:30.072Z,10.00
2018-01-28T09:37:57.681Z,9.90
2018-01-28T09:40:25.323Z,10.00
2018-01-28T09:42:52.972Z,10.00
2018-01-28T09:45:21.381Z,10.10
2018-01-28T09:47:48.966Z,10.10
2018-01-28T09:50:16.548Z,10.10
2018-01-28T09:52:44.163Z,10.20
2018-01-28T09:55:11.765Z,10.20
2018-01-28T09:57:39.348Z,10.20
2018-01-28T10:00:07.748Z,10.30
2018-01-28T10:02:36.152Z,10.30
2018-01-28T10:05:03.766Z,10.30
2018-01-28T10:07:31.370Z,10.40
2018-01-28T10:10:00.233Z,10.40
2018-01-28T10:12:28.821Z,10.50
2018-01-28T10:14:56.456Z,10.50
2018-01-28T10:17:24.144Z,10.60
2018-01-28T10:19:51.701Z,10.70
2018-01-28T10:22:19.343Z,10.90
2018-01-28T10:24:47.001Z,10.90
2018-01-28T10:27:14.621Z,11.00
2018-01-28T10:29:42.951Z,11.20
2018-01-28T10:32:10.538Z,11.20
2018-01-28T10:34:38.220Z,11.30
2018-01-28T10:37:06.603Z,11.50
2018-01-28T10:39:34.947Z,11.50
2018-01-28T10:42:02.612Z,11.50
2018-01-28T10:44:30.180Z,11.50
2018-01-28T10:46:57.779Z,11.50
2018-01-28T10:49:25.376Z,11.40
2018-01-28T10:51:53.026Z,11.40
2018-01-28T10:57:14.541Z,11.40
2018-01-28T10:59:42.880Z,11.30
2018-01-28T11:02:10.435Z,11.30
2018-01-28T11:04:38.011Z,11.30
2018-01-28T11:07:07.061Z,11.20
2018-01-28T11:09:34.677Z,11.20
2018-01-28T11:12:02.255Z,11.20
2018-01-28T11:14:30.877Z,11.20
2018-01-28T11:16:58.479Z,11.20
2018-01-28T11:19:26.796Z,11.20
2018-01-28T11:21:54.441Z,11.30
2018-01-28T11:24:31.986Z,11.40
2018-01-28T11:26:59.594Z,11.50
2018-01-28T11:29:27.146Z,11.60
2018-01-28T11:31:54.706Z,11.60
2018-01-28T11:34:39.133Z,11.60
2018-01-28T11:37:06.709Z,11.70
2018-01-28T11:39:34.258Z,11.70
2018-01-28T11:42:01.896Z,11.70
2018-01-28T11:44:33.901Z,11.70
2018-01-28T11:47:02.241Z,11.70
2018-01-28T11:49:29.818Z,11.80
2018-01-28T11:51:57.369Z,11.80
2018-01-28T11:57:22.486Z,12.00
2018-01-28T11:59:50.829Z,12.10
2018-01-28T12:02:18.390Z,12.00
2018-01-28T12:04:45.955Z,12.10
2018-01-28T12:07:13.548Z,12.20
2018-01-28T12:09:41.886Z,12.20
2018-01-28T12:12:09.438Z,12.20
2018-01-28T12:14:42.358Z,12.20
2018-01-28T12:17:09.972Z,12.20
2018-01-28T12:19:37.556Z,12.20
2018-01-28T12:22:06.007Z,12.20
2018-01-28T12:24:33.582Z,12.10
2018-01-28T12:27:01.161Z,12.00
2018-01-28T12:29:29.545Z,11.90
2018-01-28T12:31:57.165Z,11.80
2018-01-28T12:34:26.857Z,11.70
2018-01-28T12:36:54.503Z,11.70
2018-01-28T12:39:22.080Z,11.80
2018-01-28T12:41:50.415Z,11.80
2018-01-28T12:44:30.702Z,11.80
2018-01-28T12:46:58.292Z,11.90
2018-01-28T12:49:26.478Z,12.00
2018-01-28T12:51:54.072Z,11.90
2018-01-28T12:54:21.656Z,12.00
2018-01-28T12:56:49.246Z,11.90
2018-01-28T12:59:17.628Z,11.90
2018-01-28T13:01:45.952Z,11.90
2018-01-28T13:04:14.530Z,11.90
2018-01-28T13:06:42.144Z,12.00
2018-01-28T13:09:09.790Z,12.00
2018-01-28T13:11:37.342Z,12.10
2018-01-28T13:14:04.971Z,12.20
2018-01-28T13:16:32.585Z,12.20
2018-01-28T13:19:01.779Z,12.20
2018-01-28T13:21:29.387Z,12.10
2018-01-28T13:23:57.911Z,12.00
2018-01-28T13:26:25.466Z,11.90
2018-01-28T13:28:53.147Z,11.90
2018-01-28T13:31:20.783Z,11.90
2018-01-28T13:33:48.363Z,11.90
2018-01-28T13:36:16.910Z,11.90
2018-01-28T13:38:44.452Z,11.90
2018-01-28T13:41:12.773Z,11.80
2018-01-28T13:43:42.427Z,11.80
2018-01-28T13:46:09.985Z,11.80
2018-01-28T13:48:37.545Z,11.70
2018-01-28T13:51:05.170Z,11.70
2018-01-28T13:53:32.744Z,11.70
2018-01-28T13:56:00.320Z,11.70
2018-01-28T13:58:27.903Z,11.70
2018-01-28T14:00:55.464Z,11.70
2018-01-28T14:03:24.018Z,11.60
2018-01-28T14:05:51.591Z,11.60
2018-01-28T14:08:19.161Z,11.60
2018-01-28T14:10:46.778Z,11.60
2018-01-28T14:13:15.298Z,11.60
2018-01-28T14:15:42.868Z,11.60
2018-01-28T14:18:10.446Z,11.60
2018-01-28T14:20:38.574Z,11.60
2018-01-28T14:23:06.238Z,11.60
2018-01-28T14:25:33.844Z,11.60
2018-01-28T14:28:01.532Z,11.60
2018-01-28T14:30:30.162Z,11.60
2018-01-28T14:32:57.734Z,11.60
2018-01-28T14:35:25.275Z,11.50
2018-01-28T14:37:52.872Z,11.60
2018-01-28T14:40:20.453Z,11.60
2018-01-28T14:42:48.057Z,11.60
2018-01-28T14:45:15.653Z,11.50
2018-01-28T14:47:43.251Z,11.60
2018-01-28T14:50:11.575Z,11.60
2018-01-28T14:52:39.121Z,11.50
2018-01-28T14:55:06.748Z,11.60
2018-01-28T14:57:35.093Z,11.60
2018-01-28T15:00:02.652Z,11.60
2018-01-28T15:02:30.208Z,11.60
2018-01-28T15:04:57.770Z,11.60
2018-01-28T15:07:25.324Z,11.70
2018-01-28T15:09:52.925Z,11.70
2018-01-28T15:12:20.495Z,11.80
2018-01-28T15:14:48.051Z,11.80
2018-01-28T15:17:15.645Z,11.80
2018-01-28T15:19:43.218Z,11.80
2018-01-28T15:22:12.091Z,11.80
2018-01-28T15:24:40.600Z,11.80
2018-01-28T15:27:08.199Z,11.70
2018-01-28T15:29:35.813Z,11.70
2018-01-28T15:32:03.385Z,11.70
2018-01-28T15:34:30.935Z,11.70
2018-01-28T15:36:58.522Z,11.70
2018-01-28T15:39:26.702Z,11.70
2018-01-28T15:41:54.279Z,11.70
2018-01-28T15:44:22.882Z,11.60
2018-01-28T15:46:50.442Z,11.60
2018-01-28T15:49:17.986Z,11.60
2018-01-28T15:51:45.575Z,11.60
2018-01-28T15:54:13.150Z,11.60
2018-01-28T15:56:41.459Z,11.60
2018-01-28T15:59:09.862Z,11.60
2018-01-28T16:01:37.443Z,11.60
2018-01-28T16:04:05.077Z,11.60
2018-01-28T16:06:34.153Z,11.60
2018-01-28T16:09:01.727Z,11.60
2018-01-28T16:11:29.289Z,11.60
2018-01-28T16:13:57.793Z,11.70
2018-01-28T16:16:25.395Z,11.70
2018-01-28T16:18:55.357Z,11.60
2018-01-28T16:21:23.753Z,11.60
2018-01-28T16:23:51.340Z,11.60
2018-01-28T16:26:18.885Z,11.60
2018-01-28T16:28:46.418Z,11.60
2018-01-28T16:31:14.012Z,11.60
2018-01-28T16:33:41.550Z,11.60
2018-01-28T16:36:09.932Z,11.60
2018-01-28T16:38:37.524Z,11.60
2018-01-28T16:41:05.544Z,11.60
2018-01-28T16:43:45.698Z,11.60
2018-01-28T16:46:14.787Z,11.60
2018-01-28T16:48:42.373Z,11.60
2018-01-28T16:51:10.220Z,11.60
2018-01-28T16:53:37.873Z,11.60
2018-01-28T16:56:05.527Z,11.60
2018-01-28T16:58:34.625Z,11.60
2018-01-28T17:01:04.758Z,11.60
2018-01-28T17:03:34.745Z,11.60
2018-01-28T17:06:02.429Z,11.60
2018-01-28T17:08:30.007Z,11.60
2018-01-28T17:10:58.416Z,11.50
2018-01-28T17:13:29.678Z,11.50
2018-01-28T17:15:58.761Z,11.50
2018-01-28T17:18:26.404Z,11.50
2018-01-28T17:20:53.958Z,11.50
2018-01-28T17:23:25.185Z,11.50
2018-01-28T17:25:52.742Z,11.50
2018-01-28T17:28:20.329Z,11.50
2018-01-28T17:30:48.671Z,11.50
2018-01-28T17:33:16.215Z,11.50
2018-01-28T17:35:47.584Z,11.50
2018-01-28T17:38:15.173Z,11.50
2018-01-28T17:40:45.089Z,11.50
2018-01-28T17:43:16.382Z,11.50
2018-01-28T17:45:43.951Z,11.50
2018-01-28T17:48:11.515Z,11.50
2018-01-28T17:50:39.130Z,11.50
2018-01-28T17:53:07.637Z,11.50
2018-01-28T17:55:35.192Z,11.50
2018-01-28T17:58:02.790Z,11.50
2018-01-28T18:00:30.332Z,11.50
2018-01-28T18:02:58.918Z,11.50
2018-01-28T18:05:26.516Z,11.40
2018-01-28T18:07:55.526Z,11.40
2018-01-28T18:10:23.060Z,11.40
2018-01-28T18:12:50.674Z,11.40
2018-01-28T18:15:18.221Z,11.40
2018-01-28T18:17:46.602Z,11.40
2018-01-28T18:20:14.951Z,11.40
2018-01-28T18:22:44.459Z,11.40
2018-01-28T18:25:12.095Z,11.40
2018-01-28T18:27:39.705Z,11.40
2018-01-28T18:30:07.335Z,11.40
2018-01-28T18:32:46.039Z,11.40
2018-01-28T18:35:13.645Z,11.40
2018-01-28T18:37:41.197Z,11.40
2018-01-28T18:40:08.838Z,11.30
2018-01-28T18:42:40.604Z,11.30
2018-01-28T18:45:08.220Z,11.30
2018-01-28T18:47:36.572Z,11.30
2018-01-28T18:50:04.150Z,11.30
2018-01-28T18:52:34.395Z,11.30
2018-01-28T18:55:02.752Z,11.30
2018-01-28T18:57:31.578Z,11.30
2018-01-28T18:59:59.417Z,11.30
2018-01-28T19:02:27.786Z,11.30
2018-01-28T19:04:56.161Z,11.30
2018-01-28T19:07:23.771Z,11.30
2018-01-28T19:09:51.325Z,11.30
2018-01-28T19:12:18.936Z,11.30
2018-01-28T19:14:46.549Z,11.30
2018-01-28T19:17:14.125Z,11.30
2018-01-28T19:19:41.669Z,11.30
2018-01-28T19:22:09.996Z,11.20
2018-01-28T19:24:39.454Z,11.20
2018-01-28T19:27:07.848Z,11.20
2018-01-28T19:29:35.382Z,11.20
2018-01-28T19:32:03.036Z,11.20
2018-01-28T19:34:31.408Z,11.20
2018-01-28T19:36:59.054Z,11.20
2018-01-28T19:39:26.767Z,11.20
2018-01-28T19:41:55.196Z,11.20
2018-01-28T19:44:24.726Z,11.20
2018-01-28T19:46:52.400Z,11.20
2018-01-28T19:49:20.017Z,11.20
2018-01-28T19:51:47.606Z,11.20
2018-01-28T19:54:17.207Z,11.20
2018-01-28T19:56:45.279Z,11.20
2018-01-28T19:59:12.923Z,11.20
2018-01-28T20:01:40.521Z,11.20
2018-01-28T20:04:11.965Z,11.10
2018-01-28T20:06:40.303Z,11.10
2018-01-28T20:09:07.923Z,11.10
2018-01-28T20:11:35.546Z,11.10
2018-01-28T20:14:03.220Z,11.10
2018-01-28T20:16:30.794Z,11.10
2018-01-28T20:18:59.748Z,11.10
2018-01-28T20:21:28.227Z,11.10
2018-01-28T20:24:00.399Z,11.10
2018-01-28T20:26:28.691Z,11.20
2018-01-28T20:28:56.315Z,11.10
2018-01-28T20:31:23.961Z,11.10
2018-01-28T20:33:53.085Z,11.10
2018-01-28T20:36:21.577Z,11.10
2018-01-28T20:38:49.330Z,11.10
2018-01-28T20:41:17.653Z,11.10
2018-01-28T20:43:45.755Z,11.10
2018-01-28T20:46:13.926Z,11.10
2018-01-28T20:48:41.500Z,11.10
2018-01-28T20:51:09.124Z,11.10
2018-01-28T20:53:38.674Z,11.10
2018-01-28T20:56:06.262Z,11.10
2018-01-28T20:58:35.312Z,11.10
2018-01-28T21:01:02.994Z,11.10
2018-01-28T21:03:30.584Z,11.10
2018-01-28T21:05:58.928Z,11.10
2018-01-28T21:08:27.730Z,11.10
2018-01-28T21:10:55.377Z,11.10
2018-01-28T21:13:24.037Z,11.10
2018-01-28T21:15:51.674Z,11.10
2018-01-28T21:18:19.311Z,11.10
2018-01-28T21:20:46.935Z,11.10
2018-01-28T21:23:14.553Z,11.10
2018-01-28T21:25:42.070Z,11.10
2018-01-28T21:28:10.116Z,11.10
2018-01-28T21:30:37.797Z,11.10
2018-01-28T21:33:06.447Z,11.10
2018-01-28T21:35:35.786Z,11.20
2018-01-28T21:38:03.358Z,11.20
2018-01-28T21:40:30.956Z,11.10
2018-01-28T21:42:58.581Z,11.20
2018-01-28T21:45:26.786Z,11.20
2018-01-28T21:47:54.446Z,11.20
2018-01-28T21:50:22.088Z,11.20
2018-01-28T21:52:49.681Z,11.20
2018-01-28T21:55:17.263Z,11.20
2018-01-28T21:57:45.017Z,11.20
2018-01-28T22:00:13.347Z,11.20
2018-01-28T22:02:40.974Z,11.20
2018-01-28T22:05:09.325Z,11.20
2018-01-28T22:07:36.951Z,11.20
2018-01-28T22:10:04.599Z,11.20
2018-01-28T22:12:37.702Z,11.20
2018-01-28T22:15:05.312Z,11.20
2018-01-28T22:17:32.870Z,11.20
2018-01-28T22:20:00.428Z,11.20
2018-01-28T22:22:30.277Z,11.20
2018-01-28T22:24:57.868Z,11.20
2018-01-28T22:27:25.420Z,11.20
2018-01-28T22:29:53.954Z,11.20
2018-01-28T22:32:21.518Z,11.20
2018-01-28T22:34:49.877Z,11.20
2018-01-28T22:37:17.459Z,11.20
2018-01-28T22:39:45.656Z,11.20
2018-01-28T22:42:13.985Z,11.20
2018-01-28T22:44:47.243Z,11.20
2018-01-28T22:47:14.807Z,11.20
2018-01-28T22:49:42.358Z,11.20
2018-01-28T22:52:10.733Z,11.20
2018-01-28T22:54:40.061Z,11.20
2018-01-28T22:57:07.684Z,11.20
2018-01-28T22:59:35.290Z,11.20
2018-01-28T23:02:02.882Z,11.20
2018-01-28T23:04:30.462Z,11.20
2018-01-28T23:06:58.046Z,11.20
2018-01-28T23:09:26.382Z,11.20
2018-01-28T23:11:53.962Z,11.20
2018-01-28T23:14:21.572Z,11.20
2018-01-28T23:16:49.222Z,11.20
2018-01-28T23:19:17.552Z,11.20
2018-01-28T23:21:45.159Z,11.20
2018-01-28T23:24:24.336Z,11.20
2018-01-28T23:26:51.947Z,11.20
2018-01-28T23:29:19.513Z,11.20
2018-01-28T23:31:47.937Z,11.20
2018-01-28T23:34:17.463Z,11.20
2018-01-28T23:36:45.179Z,11.20
2018-01-28T23:39:13.511Z,11.20
2018-01-28T23:41:42.675Z,11.20
2018-01-28T23:44:29.393Z,11.20
2018-01-28T23:46:56.980Z,11.20
2018-01-28T23:49:24.584Z,11.20
2018-01-28T23:51:52.904Z,11.20
2018-01-28T23:54:27.550Z,11.20
2018-01-28T23:56:55.102Z,11.20
2018-01-28T23:59:23.487Z,11.20
